sensor_id;sensor_type;location;lat;lon;timestamp;pressure;altitude;pressure_sealevel;temperature;humidity
55675;BME280;41562;44.330;23.802;2022-08-01T00:02:28;99731.75;;;21.81;52.97
55675;BME280;41562;44.330;23.802;2022-08-01T00:05:02;99738.63;;;21.75;53.05
55675;BME280;41562;44.330;23.802;2022-08-01T00:07:34;99730.94;;;21.80;52.87
55675;BME280;41562;44.330;23.802;2022-08-01T00:10:08;99730.06;;;21.76;52.71
55675;BME280;41562;44.330;23.802;2022-08-01T00:12:50;99737.44;;;21.76;53.05
55675;BME280;41562;44.330;23.802;2022-08-01T00:15:44;99734.59;;;21.69;53.01
55675;BME280;41562;44.330;23.802;2022-08-01T00:18:20;99730.34;;;21.71;52.77
55675;BME280;41562;44.330;23.802;2022-08-01T00:20:57;99722.13;;;21.67;52.93
55675;BME280;41562;44.330;23.802;2022-08-01T00:23:24;99726.06;;;21.70;52.70
55675;BME280;41562;44.330;23.802;2022-08-01T00:25:54;99723.63;;;21.65;52.84
55675;BME280;41562;44.330;23.802;2022-08-01T00:28:22;99724.41;;;21.65;52.51
55675;BME280;41562;44.330;23.802;2022-08-01T00:30:52;99726.69;;;21.63;52.46
55675;BME280;41562;44.330;23.802;2022-08-01T00:33:20;99734.94;;;21.48;52.92
55675;BME280;41562;44.330;23.802;2022-08-01T00:35:47;99733.28;;;21.62;52.49
55675;BME280;41562;44.330;23.802;2022-08-01T00:38:14;99734.72;;;21.76;52.38
55675;BME280;41562;44.330;23.802;2022-08-01T00:40:44;99728.63;;;21.82;51.95
55675;BME280;41562;44.330;23.802;2022-08-01T00:43:11;99733.22;;;21.59;52.38
55675;BME280;41562;44.330;23.802;2022-08-01T00:45:38;99735.88;;;21.55;52.32
55675;BME280;41562;44.330;23.802;2022-08-01T00:48:09;99733.50;;;21.54;52.23
55675;BME280;41562;44.330;23.802;2022-08-01T00:50:36;99723.41;;;21.54;52.02
55675;BME280;41562;44.330;23.802;2022-08-01T00:53:09;99726.34;;;21.65;51.80
55675;BME280;41562;44.330;23.802;2022-08-01T00:55:45;99731.34;;;21.63;51.76
55675;BME280;41562;44.330;23.802;2022-08-01T00:58:13;99721.50;;;21.74;51.64
55675;BME280;41562;44.330;23.802;2022-08-01T01:00:43;99719.81;;;21.70;51.53
55675;BME280;41562;44.330;23.802;2022-08-01T01:03:20;99731.00;;;21.64;51.49
55675;BME280;41562;44.330;23.802;2022-08-01T01:09:02;99725.78;;;21.56;51.73
55675;BME280;41562;44.330;23.802;2022-08-01T01:14:33;99725.84;;;21.59;52.26
55675;BME280;41562;44.330;23.802;2022-08-01T01:17:03;99718.75;;;21.55;52.11
55675;BME280;41562;44.330;23.802;2022-08-01T01:19:38;99725.06;;;21.59;52.38
55675;BME280;41562;44.330;23.802;2022-08-01T01:24:51;99724.34;;;21.43;52.78
55675;BME280;41562;44.330;23.802;2022-08-01T01:30:12;99722.75;;;21.42;52.47
55675;BME280;41562;44.330;23.802;2022-08-01T01:32:44;99719.88;;;21.35;52.59
55675;BME280;41562;44.330;23.802;2022-08-01T01:35:19;99722.25;;;21.36;52.87
55675;BME280;41562;44.330;23.802;2022-08-01T01:37:48;99719.59;;;21.40;52.74
55675;BME280;41562;44.330;23.802;2022-08-01T01:40:22;99712.00;;;21.30;52.99
55675;BME280;41562;44.330;23.802;2022-08-01T01:42:50;99708.38;;;21.25;53.42
55675;BME280;41562;44.330;23.802;2022-08-01T01:45:22;99710.84;;;21.31;53.15
55675;BME280;41562;44.330;23.802;2022-08-01T01:47:51;99712.78;;;21.14;53.61
55675;BME280;41562;44.330;23.802;2022-08-01T01:50:22;99712.03;;;20.98;53.84
55675;BME280;41562;44.330;23.802;2022-08-01T01:52:56;99714.97;;;21.24;53.33
55675;BME280;41562;44.330;23.802;2022-08-01T01:55:24;99707.19;;;21.23;53.71
55675;BME280;41562;44.330;23.802;2022-08-01T01:57:56;99704.56;;;21.11;54.27
55675;BME280;41562;44.330;23.802;2022-08-01T02:00:24;99704.47;;;21.07;54.46
55675;BME280;41562;44.330;23.802;2022-08-01T02:02:52;99700.50;;;21.20;54.10
55675;BME280;41562;44.330;23.802;2022-08-01T02:05:21;99705.59;;;21.06;54.43
55675;BME280;41562;44.330;23.802;2022-08-01T02:07:49;99702.88;;;21.06;54.35
55675;BME280;41562;44.330;23.802;2022-08-01T02:10:21;99709.81;;;21.04;54.48
55675;BME280;41562;44.330;23.802;2022-08-01T02:12:55;99710.72;;;20.92;54.70
55675;BME280;41562;44.330;23.802;2022-08-01T02:15:24;99719.28;;;21.10;54.72
55675;BME280;41562;44.330;23.802;2022-08-01T02:17:52;99708.00;;;22.20;57.19
55675;BME280;41562;44.330;23.802;2022-08-01T02:20:20;99713.69;;;23.02;56.39
55675;BME280;41562;44.330;23.802;2022-08-01T02:22:55;99709.53;;;23.38;54.55
55675;BME280;41562;44.330;23.802;2022-08-01T02:25:36;99710.50;;;23.49;53.22
55675;BME280;41562;44.330;23.802;2022-08-01T02:28:29;99704.56;;;23.74;52.39
55675;BME280;41562;44.330;23.802;2022-08-01T02:31:02;99706.22;;;23.82;51.36
55675;BME280;41562;44.330;23.802;2022-08-01T02:33:37;99699.22;;;23.84;51.08
55675;BME280;41562;44.330;23.802;2022-08-01T02:36:04;99705.31;;;23.71;50.57
55675;BME280;41562;44.330;23.802;2022-08-01T02:38:55;99705.94;;;23.60;51.18
55675;BME280;41562;44.330;23.802;2022-08-01T02:41:24;99702.88;;;23.65;50.62
55675;BME280;41562;44.330;23.802;2022-08-01T02:43:55;99693.56;;;23.40;50.37
55675;BME280;41562;44.330;23.802;2022-08-01T02:46:25;99692.72;;;23.33;51.03
55675;BME280;41562;44.330;23.802;2022-08-01T02:48:53;99694.56;;;23.55;50.10
55675;BME280;41562;44.330;23.802;2022-08-01T02:51:23;99692.81;;;23.70;50.04
55675;BME280;41562;44.330;23.802;2022-08-01T02:53:51;99699.34;;;23.61;50.19
55675;BME280;41562;44.330;23.802;2022-08-01T02:56:24;99698.28;;;23.70;50.67
55675;BME280;41562;44.330;23.802;2022-08-01T02:58:52;99695.69;;;23.50;49.80
55675;BME280;41562;44.330;23.802;2022-08-01T03:01:25;99700.91;;;23.62;50.01
55675;BME280;41562;44.330;23.802;2022-08-01T03:03:58;99709.94;;;23.67;50.45
55675;BME280;41562;44.330;23.802;2022-08-01T03:06:29;99705.84;;;23.53;48.67
55675;BME280;41562;44.330;23.802;2022-08-01T03:09:00;99701.19;;;23.54;50.07
55675;BME280;41562;44.330;23.802;2022-08-01T03:11:30;99698.63;;;23.38;50.31
55675;BME280;41562;44.330;23.802;2022-08-01T03:14:02;99707.44;;;23.28;50.50
55675;BME280;41562;44.330;23.802;2022-08-01T03:16:35;99700.78;;;23.25;50.68
55675;BME280;41562;44.330;23.802;2022-08-01T03:19:04;99692.59;;;23.25;50.92
55675;BME280;41562;44.330;23.802;2022-08-01T03:21:32;99700.09;;;23.32;50.25
55675;BME280;41562;44.330;23.802;2022-08-01T03:24:01;99701.94;;;23.51;50.01
55675;BME280;41562;44.330;23.802;2022-08-01T03:26:33;99699.31;;;23.32;49.93
55675;BME280;41562;44.330;23.802;2022-08-01T03:29:05;99703.22;;;23.34;50.33
55675;BME280;41562;44.330;23.802;2022-08-01T03:31:37;99703.47;;;23.48;49.57
55675;BME280;41562;44.330;23.802;2022-08-01T03:34:07;99706.19;;;23.48;50.20
55675;BME280;41562;44.330;23.802;2022-08-01T03:36:37;99707.94;;;23.63;49.26
55675;BME280;41562;44.330;23.802;2022-08-01T03:39:09;99701.97;;;23.54;50.26
55675;BME280;41562;44.330;23.802;2022-08-01T03:41:40;99700.13;;;23.36;50.45
55675;BME280;41562;44.330;23.802;2022-08-01T03:44:10;99699.28;;;22.75;51.31
55675;BME280;41562;44.330;23.802;2022-08-01T03:46:50;99691.25;;;22.63;52.17
55675;BME280;41562;44.330;23.802;2022-08-01T03:49:35;99704.22;;;22.70;53.07
55675;BME280;41562;44.330;23.802;2022-08-01T03:52:03;99702.94;;;22.41;52.41
55675;BME280;41562;44.330;23.802;2022-08-01T03:54:37;99707.38;;;22.49;52.79
55675;BME280;41562;44.330;23.802;2022-08-01T03:57:08;99712.88;;;22.53;53.49
55675;BME280;41562;44.330;23.802;2022-08-01T04:00:00;99713.97;;;22.48;52.70
55675;BME280;41562;44.330;23.802;2022-08-01T04:02:34;99709.13;;;22.38;52.44
55675;BME280;41562;44.330;23.802;2022-08-01T04:05:03;99704.56;;;22.23;52.67
55675;BME280;41562;44.330;23.802;2022-08-01T04:07:32;99699.34;;;22.14;52.84
55675;BME280;41562;44.330;23.802;2022-08-01T04:10:04;99703.59;;;22.12;54.16
55675;BME280;41562;44.330;23.802;2022-08-01T04:12:33;99706.34;;;22.57;52.62
55675;BME280;41562;44.330;23.802;2022-08-01T04:15:07;99707.81;;;22.74;51.84
55675;BME280;41562;44.330;23.802;2022-08-01T04:17:41;99708.75;;;22.85;51.31
55675;BME280;41562;44.330;23.802;2022-08-01T04:20:11;99704.09;;;22.85;50.71
55675;BME280;41562;44.330;23.802;2022-08-01T04:22:48;99692.50;;;22.92;50.56
55675;BME280;41562;44.330;23.802;2022-08-01T04:25:25;99698.53;;;22.78;50.97
55675;BME280;41562;44.330;23.802;2022-08-01T04:28:03;99704.41;;;22.80;50.74
55675;BME280;41562;44.330;23.802;2022-08-01T04:30:32;99701.59;;;22.77;51.37
55675;BME280;41562;44.330;23.802;2022-08-01T04:33:10;99694.38;;;22.65;50.78
55675;BME280;41562;44.330;23.802;2022-08-01T04:35:39;99694.34;;;22.62;51.68
55675;BME280;41562;44.330;23.802;2022-08-01T04:38:36;99687.97;;;22.77;50.67
55675;BME280;41562;44.330;23.802;2022-08-01T04:41:09;99693.97;;;22.63;51.22
55675;BME280;41562;44.330;23.802;2022-08-01T04:43:44;99690.78;;;22.80;51.07
55675;BME280;41562;44.330;23.802;2022-08-01T04:46:15;99697.25;;;22.72;50.88
55675;BME280;41562;44.330;23.802;2022-08-01T04:48:53;99698.84;;;22.73;51.41
55675;BME280;41562;44.330;23.802;2022-08-01T04:51:21;99701.09;;;22.71;51.52
55675;BME280;41562;44.330;23.802;2022-08-01T04:53:49;99693.94;;;22.82;51.51
55675;BME280;41562;44.330;23.802;2022-08-01T04:56:21;99704.19;;;22.93;51.87
55675;BME280;41562;44.330;23.802;2022-08-01T04:58:49;99706.94;;;22.93;51.79
55675;BME280;41562;44.330;23.802;2022-08-01T05:01:19;99704.81;;;23.09;52.36
55675;BME280;41562;44.330;23.802;2022-08-01T05:03:47;99697.50;;;23.13;52.19
55675;BME280;41562;44.330;23.802;2022-08-01T05:06:18;99707.75;;;23.23;52.37
55675;BME280;41562;44.330;23.802;2022-08-01T05:08:49;99704.34;;;23.03;52.63
55675;BME280;41562;44.330;23.802;2022-08-01T05:11:25;99702.00;;;23.02;52.89
55675;BME280;41562;44.330;23.802;2022-08-01T05:13:57;99706.03;;;23.11;52.61
55675;BME280;41562;44.330;23.802;2022-08-01T05:16:28;99712.97;;;23.05;52.51
55675;BME280;41562;44.330;23.802;2022-08-01T05:19:00;99715.63;;;23.02;52.78
55675;BME280;41562;44.330;23.802;2022-08-01T05:21:28;99712.53;;;23.03;53.05
55675;BME280;41562;44.330;23.802;2022-08-01T05:24:02;99721.72;;;23.18;52.78
55675;BME280;41562;44.330;23.802;2022-08-01T05:26:31;99721.28;;;23.42;51.78
55675;BME280;41562;44.330;23.802;2022-08-01T05:29:06;99723.19;;;23.38;52.32
55675;BME280;41562;44.330;23.802;2022-08-01T05:31:37;99724.34;;;23.63;51.58
55675;BME280;41562;44.330;23.802;2022-08-01T05:34:07;99723.59;;;23.40;51.77
55675;BME280;41562;44.330;23.802;2022-08-01T05:36:41;99729.69;;;23.30;52.79
55675;BME280;41562;44.330;23.802;2022-08-01T05:39:12;99735.94;;;23.31;52.05
55675;BME280;41562;44.330;23.802;2022-08-01T05:41:42;99735.41;;;23.48;52.23
55675;BME280;41562;44.330;23.802;2022-08-01T05:44:15;99733.34;;;23.41;52.11
55675;BME280;41562;44.330;23.802;2022-08-01T05:46:47;99746.16;;;23.37;52.07
55675;BME280;41562;44.330;23.802;2022-08-01T05:49:18;99743.38;;;23.34;51.95
55675;BME280;41562;44.330;23.802;2022-08-01T05:51:51;99742.69;;;23.40;52.33
55675;BME280;41562;44.330;23.802;2022-08-01T05:54:21;99746.53;;;23.36;52.18
55675;BME280;41562;44.330;23.802;2022-08-01T05:56:54;99748.84;;;23.60;52.40
55675;BME280;41562;44.330;23.802;2022-08-01T05:59:24;99750.00;;;23.89;51.94
55675;BME280;41562;44.330;23.802;2022-08-01T06:01:55;99756.56;;;23.84;51.31
55675;BME280;41562;44.330;23.802;2022-08-01T06:04:25;99757.09;;;23.97;51.54
55675;BME280;41562;44.330;23.802;2022-08-01T06:06:53;99756.13;;;24.12;51.38
55675;BME280;41562;44.330;23.802;2022-08-01T06:09:24;99753.59;;;24.26;50.67
55675;BME280;41562;44.330;23.802;2022-08-01T06:12:00;99752.63;;;24.49;49.91
55675;BME280;41562;44.330;23.802;2022-08-01T06:14:27;99752.81;;;24.70;49.46
55675;BME280;41562;44.330;23.802;2022-08-01T06:16:54;99755.81;;;24.98;49.67
55675;BME280;41562;44.330;23.802;2022-08-01T06:19:28;99766.66;;;24.88;49.66
55675;BME280;41562;44.330;23.802;2022-08-01T06:21:55;99761.44;;;25.19;49.07
55675;BME280;41562;44.330;23.802;2022-08-01T06:24:27;99762.25;;;25.23;49.41
55675;BME280;41562;44.330;23.802;2022-08-01T06:26:57;99754.59;;;25.47;48.90
55675;BME280;41562;44.330;23.802;2022-08-01T06:29:24;99755.81;;;25.53;48.52
55675;BME280;41562;44.330;23.802;2022-08-01T06:31:58;99754.78;;;25.79;48.37
55675;BME280;41562;44.330;23.802;2022-08-01T06:34:28;99759.41;;;25.64;48.05
55675;BME280;41562;44.330;23.802;2022-08-01T06:37:01;99755.38;;;25.47;48.56
55675;BME280;41562;44.330;23.802;2022-08-01T06:39:35;99764.97;;;25.78;47.95
55675;BME280;41562;44.330;23.802;2022-08-01T06:42:02;99765.84;;;26.03;47.39
55675;BME280;41562;44.330;23.802;2022-08-01T06:44:30;99759.28;;;26.26;46.93
55675;BME280;41562;44.330;23.802;2022-08-01T06:47:01;99760.09;;;26.44;47.09
55675;BME280;41562;44.330;23.802;2022-08-01T06:49:35;99759.34;;;26.54;46.55
55675;BME280;41562;44.330;23.802;2022-08-01T06:52:06;99751.13;;;26.61;46.63
55675;BME280;41562;44.330;23.802;2022-08-01T06:54:35;99750.75;;;26.80;46.56
55675;BME280;41562;44.330;23.802;2022-08-01T06:57:06;99743.69;;;26.94;46.74
55675;BME280;41562;44.330;23.802;2022-08-01T06:59:33;99743.31;;;27.06;45.06
55675;BME280;41562;44.330;23.802;2022-08-01T07:02:01;99746.00;;;26.81;45.67
55675;BME280;41562;44.330;23.802;2022-08-01T07:04:32;99747.22;;;27.05;45.66
55675;BME280;41562;44.330;23.802;2022-08-01T07:07:02;99744.81;;;27.35;44.81
55675;BME280;41562;44.330;23.802;2022-08-01T07:09:36;99744.81;;;27.56;44.67
55675;BME280;41562;44.330;23.802;2022-08-01T07:12:06;99743.22;;;27.59;44.90
55675;BME280;41562;44.330;23.802;2022-08-01T07:14:34;99747.91;;;27.69;44.32
55675;BME280;41562;44.330;23.802;2022-08-01T07:17:04;99747.91;;;27.44;43.49
55675;BME280;41562;44.330;23.802;2022-08-01T07:19:35;99751.84;;;27.61;42.99
55675;BME280;41562;44.330;23.802;2022-08-01T07:22:08;99745.97;;;27.52;43.09
55675;BME280;41562;44.330;23.802;2022-08-01T07:24:40;99758.13;;;27.62;42.84
55675;BME280;41562;44.330;23.802;2022-08-01T07:27:12;99759.28;;;27.68;42.11
55675;BME280;41562;44.330;23.802;2022-08-01T07:29:55;99753.03;;;27.60;41.73
55675;BME280;41562;44.330;23.802;2022-08-01T07:32:34;99741.63;;;27.69;42.08
55675;BME280;41562;44.330;23.802;2022-08-01T07:35:11;99747.38;;;27.99;41.84
55675;BME280;41562;44.330;23.802;2022-08-01T07:37:52;99746.53;;;28.13;41.44
55675;BME280;41562;44.330;23.802;2022-08-01T07:40:30;99751.16;;;28.30;41.49
55675;BME280;41562;44.330;23.802;2022-08-01T07:43:03;99743.75;;;28.20;41.02
55675;BME280;41562;44.330;23.802;2022-08-01T07:45:34;99755.44;;;28.34;41.19
55675;BME280;41562;44.330;23.802;2022-08-01T07:48:12;99746.97;;;28.00;41.23
55675;BME280;41562;44.330;23.802;2022-08-01T07:50:46;99744.53;;;28.20;40.51
55675;BME280;41562;44.330;23.802;2022-08-01T07:53:16;99749.34;;;27.95;40.84
55675;BME280;41562;44.330;23.802;2022-08-01T07:55:44;99754.78;;;28.16;40.39
55675;BME280;41562;44.330;23.802;2022-08-01T07:58:13;99755.56;;;28.13;41.11
55675;BME280;41562;44.330;23.802;2022-08-01T08:00:43;99756.34;;;28.17;39.97
55675;BME280;41562;44.330;23.802;2022-08-01T08:03:20;99760.63;;;28.25;39.88
55675;BME280;41562;44.330;23.802;2022-08-01T08:05:55;99755.78;;;28.44;39.91
55675;BME280;41562;44.330;23.802;2022-08-01T08:08:26;99751.81;;;28.52;39.39
55675;BME280;41562;44.330;23.802;2022-08-01T08:10:53;99754.56;;;28.52;39.81
55675;BME280;41562;44.330;23.802;2022-08-01T08:13:21;99749.81;;;28.56;39.79
55675;BME280;41562;44.330;23.802;2022-08-01T08:15:51;99756.06;;;28.60;39.31
55675;BME280;41562;44.330;23.802;2022-08-01T08:18:19;99755.94;;;28.19;40.12
55675;BME280;41562;44.330;23.802;2022-08-01T08:20:46;99767.22;;;28.38;40.05
55675;BME280;41562;44.330;23.802;2022-08-01T08:23:16;99763.34;;;28.32;39.74
55675;BME280;41562;44.330;23.802;2022-08-01T08:26:03;99765.66;;;28.37;39.86
55675;BME280;41562;44.330;23.802;2022-08-01T08:28:31;99760.13;;;28.41;38.84
55675;BME280;41562;44.330;23.802;2022-08-01T08:31:01;99751.56;;;28.28;39.42
55675;BME280;41562;44.330;23.802;2022-08-01T08:33:29;99763.41;;;28.08;39.14
55675;BME280;41562;44.330;23.802;2022-08-01T08:35:57;99754.25;;;28.35;38.59
55675;BME280;41562;44.330;23.802;2022-08-01T08:38:27;99759.63;;;28.57;38.22
55675;BME280;41562;44.330;23.802;2022-08-01T08:40:59;99759.13;;;28.76;38.98
55675;BME280;41562;44.330;23.802;2022-08-01T08:43:34;99755.69;;;28.58;38.56
55675;BME280;41562;44.330;23.802;2022-08-01T08:46:02;99757.81;;;28.36;40.02
55675;BME280;41562;44.330;23.802;2022-08-01T08:48:29;99768.47;;;28.89;38.93
55675;BME280;41562;44.330;23.802;2022-08-01T08:51:03;99765.56;;;29.03;38.58
55675;BME280;41562;44.330;23.802;2022-08-01T08:53:33;99756.69;;;28.85;38.50
55675;BME280;41562;44.330;23.802;2022-08-01T08:56:03;99750.50;;;28.74;37.85
55675;BME280;41562;44.330;23.802;2022-08-01T08:58:33;99757.44;;;28.89;38.33
55675;BME280;41562;44.330;23.802;2022-08-01T09:01:05;99763.19;;;29.05;38.34
55675;BME280;41562;44.330;23.802;2022-08-01T09:03:36;99756.88;;;29.08;37.73
55675;BME280;41562;44.330;23.802;2022-08-01T09:06:09;99758.81;;;29.11;38.42
55675;BME280;41562;44.330;23.802;2022-08-01T09:08:41;99749.25;;;29.23;37.85
55675;BME280;41562;44.330;23.802;2022-08-01T09:11:12;99750.75;;;29.35;38.57
55675;BME280;41562;44.330;23.802;2022-08-01T09:14:08;99750.16;;;29.13;38.32
55675;BME280;41562;44.330;23.802;2022-08-01T09:16:37;99745.94;;;29.01;37.75
55675;BME280;41562;44.330;23.802;2022-08-01T09:19:18;99747.56;;;29.40;37.78
55675;BME280;41562;44.330;23.802;2022-08-01T09:22:12;99745.22;;;28.90;37.88
55675;BME280;41562;44.330;23.802;2022-08-01T09:24:56;99740.72;;;29.10;37.88
55675;BME280;41562;44.330;23.802;2022-08-01T09:27:24;99734.75;;;28.74;38.09
55675;BME280;41562;44.330;23.802;2022-08-01T09:29:54;99745.38;;;29.17;38.16
55675;BME280;41562;44.330;23.802;2022-08-01T09:32:33;99738.84;;;29.45;37.20
55675;BME280;41562;44.330;23.802;2022-08-01T09:38:24;99741.94;;;29.47;37.50
55675;BME280;41562;44.330;23.802;2022-08-01T09:40:57;99734.41;;;29.13;36.26
55675;BME280;41562;44.330;23.802;2022-08-01T09:43:27;99731.31;;;29.08;36.13
55675;BME280;41562;44.330;23.802;2022-08-01T09:45:57;99741.63;;;29.00;36.25
55675;BME280;41562;44.330;23.802;2022-08-01T09:48:35;99736.72;;;29.15;36.51
55675;BME280;41562;44.330;23.802;2022-08-01T09:51:10;99732.41;;;29.17;36.46
55675;BME280;41562;44.330;23.802;2022-08-01T09:53:58;99729.56;;;29.25;36.57
55675;BME280;41562;44.330;23.802;2022-08-01T09:56:35;99738.44;;;29.46;37.11
55675;BME280;41562;44.330;23.802;2022-08-01T09:59:11;99741.06;;;29.57;36.67
55675;BME280;41562;44.330;23.802;2022-08-01T10:01:42;99736.19;;;29.68;36.01
55675;BME280;41562;44.330;23.802;2022-08-01T10:04:20;99734.09;;;29.79;36.23
55675;BME280;41562;44.330;23.802;2022-08-01T10:07:03;99724.00;;;30.00;35.62
55675;BME280;41562;44.330;23.802;2022-08-01T10:09:35;99726.09;;;29.88;35.94
55675;BME280;41562;44.330;23.802;2022-08-01T10:12:13;99717.03;;;29.88;35.25
55675;BME280;41562;44.330;23.802;2022-08-01T10:14:46;99717.59;;;29.76;34.78
55675;BME280;41562;44.330;23.802;2022-08-01T10:17:20;99724.41;;;29.98;36.22
55675;BME280;41562;44.330;23.802;2022-08-01T10:19:49;99715.44;;;29.90;35.34
55675;BME280;41562;44.330;23.802;2022-08-01T10:22:26;99727.13;;;30.02;35.32
55675;BME280;41562;44.330;23.802;2022-08-01T10:24:55;99722.16;;;29.89;35.04
55675;BME280;41562;44.330;23.802;2022-08-01T10:27:26;99727.16;;;29.98;34.66
55675;BME280;41562;44.330;23.802;2022-08-01T10:30:06;99728.38;;;29.63;34.16
55675;BME280;41562;44.330;23.802;2022-08-01T10:32:48;99722.31;;;29.45;34.21
55675;BME280;41562;44.330;23.802;2022-08-01T10:35:21;99730.31;;;29.66;35.27
55675;BME280;41562;44.330;23.802;2022-08-01T10:38:15;99706.34;;;29.63;33.27
55675;BME280;41562;44.330;23.802;2022-08-01T10:40:49;99712.50;;;29.74;33.83
55675;BME280;41562;44.330;23.802;2022-08-01T10:43:17;99708.31;;;29.96;33.16
55675;BME280;41562;44.330;23.802;2022-08-01T10:45:48;99707.63;;;29.85;33.86
55675;BME280;41562;44.330;23.802;2022-08-01T10:51:02;99710.63;;;29.34;33.86
55675;BME280;41562;44.330;23.802;2022-08-01T10:53:52;99707.38;;;29.42;33.61
55675;BME280;41562;44.330;23.802;2022-08-01T10:56:38;99700.47;;;29.24;34.22
55675;BME280;41562;44.330;23.802;2022-08-01T10:59:06;99702.75;;;29.66;34.59
55675;BME280;41562;44.330;23.802;2022-08-01T11:01:38;99704.53;;;29.49;34.29
55675;BME280;41562;44.330;23.802;2022-08-01T11:04:14;99701.38;;;29.51;33.85
55675;BME280;41562;44.330;23.802;2022-08-01T11:07:45;99700.69;;;29.74;34.01
55675;BME280;41562;44.330;23.802;2022-08-01T11:09:45;99704.53;;;29.49;34.47
55675;BME280;41562;44.330;23.802;2022-08-01T11:12:21;99699.09;;;29.76;34.71
55675;BME280;41562;44.330;23.802;2022-08-01T11:18:02;99681.53;;;29.63;34.75
55675;BME280;41562;44.330;23.802;2022-08-01T11:20:33;99685.63;;;29.82;35.45
55675;BME280;41562;44.330;23.802;2022-08-01T11:28:29;99663.44;;;29.92;34.91
55675;BME280;41562;44.330;23.802;2022-08-01T11:33:55;99676.09;;;29.86;34.39
55675;BME280;41562;44.330;23.802;2022-08-01T11:36:36;99664.06;;;29.73;34.72
55675;BME280;41562;44.330;23.802;2022-08-01T11:39:39;99666.25;;;29.58;34.45
55675;BME280;41562;44.330;23.802;2022-08-01T11:42:20;99663.00;;;29.33;33.94
55675;BME280;41562;44.330;23.802;2022-08-01T11:44:51;99666.69;;;29.16;34.71
55675;BME280;41562;44.330;23.802;2022-08-01T11:52:59;99657.19;;;29.58;35.01
55675;BME280;41562;44.330;23.802;2022-08-01T11:55:38;99650.44;;;29.63;35.20
55675;BME280;41562;44.330;23.802;2022-08-01T11:58:23;99648.94;;;29.58;34.82
55675;BME280;41562;44.330;23.802;2022-08-01T12:01:13;99648.63;;;29.49;34.54
55675;BME280;41562;44.330;23.802;2022-08-01T12:03:55;99638.16;;;29.67;34.43
55675;BME280;41562;44.330;23.802;2022-08-01T12:06:37;99646.50;;;29.60;34.53
55675;BME280;41562;44.330;23.802;2022-08-01T12:09:18;99639.34;;;29.36;34.92
55675;BME280;41562;44.330;23.802;2022-08-01T12:11:51;99641.09;;;29.53;35.00
55675;BME280;41562;44.330;23.802;2022-08-01T12:14:40;99647.13;;;29.75;35.22
55675;BME280;41562;44.330;23.802;2022-08-01T12:20:30;99635.81;;;29.66;34.64
55675;BME280;41562;44.330;23.802;2022-08-01T12:23:14;99639.19;;;29.50;34.53
55675;BME280;41562;44.330;23.802;2022-08-01T12:25:55;99628.53;;;29.52;34.62
55675;BME280;41562;44.330;23.802;2022-08-01T12:28:26;99637.13;;;29.57;34.70
55675;BME280;41562;44.330;23.802;2022-08-01T12:30:57;99638.47;;;29.46;35.30
55675;BME280;41562;44.330;23.802;2022-08-01T12:33:30;99644.19;;;29.58;35.58
55675;BME280;41562;44.330;23.802;2022-08-01T12:35:57;99634.03;;;29.52;35.01
55675;BME280;41562;44.330;23.802;2022-08-01T12:38:25;99635.94;;;29.85;35.55
55675;BME280;41562;44.330;23.802;2022-08-01T12:40:53;99639.91;;;29.84;34.90
55675;BME280;41562;44.330;23.802;2022-08-01T12:43:21;99638.72;;;29.55;34.55
55675;BME280;41562;44.330;23.802;2022-08-01T12:45:56;99633.56;;;29.57;34.92
55675;BME280;41562;44.330;23.802;2022-08-01T12:48:25;99632.50;;;29.47;34.97
55675;BME280;41562;44.330;23.802;2022-08-01T12:50:53;99632.50;;;29.13;35.46
55675;BME280;41562;44.330;23.802;2022-08-01T12:53:21;99626.56;;;29.18;35.59
55675;BME280;41562;44.330;23.802;2022-08-01T12:55:54;99630.41;;;29.25;36.25
55675;BME280;41562;44.330;23.802;2022-08-01T12:58:32;99633.78;;;29.05;36.29
55675;BME280;41562;44.330;23.802;2022-08-01T13:01:24;99633.78;;;29.05;36.56
55675;BME280;41562;44.330;23.802;2022-08-01T13:04:02;99627.25;;;29.26;36.08
55675;BME280;41562;44.330;23.802;2022-08-01T13:06:30;99629.09;;;29.40;35.55
55675;BME280;41562;44.330;23.802;2022-08-01T13:09:08;99629.31;;;29.18;35.62
55675;BME280;41562;44.330;23.802;2022-08-01T13:11:41;99640.00;;;29.09;35.57
55675;BME280;41562;44.330;23.802;2022-08-01T13:14:32;99638.03;;;29.13;35.88
55675;BME280;41562;44.330;23.802;2022-08-01T13:16:59;99626.09;;;29.24;35.80
55675;BME280;41562;44.330;23.802;2022-08-01T13:19:45;99630.41;;;29.25;36.44
55675;BME280;41562;44.330;23.802;2022-08-01T13:22:13;99623.03;;;29.52;36.38
55675;BME280;41562;44.330;23.802;2022-08-01T13:24:41;99623.84;;;29.49;35.96
55675;BME280;41562;44.330;23.802;2022-08-01T13:27:19;99629.22;;;29.26;36.16
55675;BME280;41562;44.330;23.802;2022-08-01T13:29:47;99637.34;;;29.02;36.81
55675;BME280;41562;44.330;23.802;2022-08-01T13:32:16;99624.97;;;29.21;36.91
55675;BME280;41562;44.330;23.802;2022-08-01T13:35:03;99623.75;;;29.22;37.36
55675;BME280;41562;44.330;23.802;2022-08-01T13:37:32;99630.38;;;28.94;37.49
55675;BME280;41562;44.330;23.802;2022-08-01T13:39:59;99630.06;;;28.85;38.04
55675;BME280;41562;44.330;23.802;2022-08-01T13:42:27;99626.50;;;28.88;38.65
55675;BME280;41562;44.330;23.802;2022-08-01T13:44:55;99630.56;;;29.10;38.84
55675;BME280;41562;44.330;23.802;2022-08-01T13:47:22;99617.88;;;29.20;38.53
55675;BME280;41562;44.330;23.802;2022-08-01T13:50:09;99623.13;;;29.45;38.63
55675;BME280;41562;44.330;23.802;2022-08-01T13:52:39;99631.69;;;29.50;38.34
55675;BME280;41562;44.330;23.802;2022-08-01T13:55:10;99628.72;;;29.38;38.38
55675;BME280;41562;44.330;23.802;2022-08-01T13:57:40;99629.78;;;29.10;38.20
55675;BME280;41562;44.330;23.802;2022-08-01T14:00:08;99629.84;;;29.06;39.03